createdAt,value
2019-04-21T00:00:11.873Z,10.87
2019-04-21T00:03:12.892Z,11.47
2019-04-21T00:06:25.048Z,9.37
2019-04-21T00:12:57.414Z,8.80
2019-04-21T00:19:33.195Z,10.07
2019-04-21T01:05:19.868Z,9.27
2019-04-21T01:07:48.259Z,7.67
2019-04-21T01:14:34.553Z,8.77
2019-04-21T01:30:31.215Z,10.10
2019-04-21T01:33:09.487Z,8.67
2019-04-21T01:44:44.472Z,8.70
2019-04-21T01:47:14.588Z,8.10
2019-04-21T01:50:01.576Z,9.90
2019-04-21T01:52:49.927Z,8.20
2019-04-21T01:55:25.177Z,7.00
2019-04-21T01:58:07.766Z,9.00
2019-04-21T02:01:03.559Z,6.83
2019-04-21T02:07:01.337Z,7.80
2019-04-21T02:10:22.558Z,8.23
2019-04-21T02:12:56.622Z,8.00
2019-04-21T02:15:56.089Z,9.63
2019-04-21T02:18:33.914Z,8.37
2019-04-21T02:21:00.459Z,8.20
2019-04-21T02:24:23.575Z,8.27
2019-04-21T02:27:08.586Z,8.73
2019-04-21T02:29:55.907Z,7.00
2019-04-21T02:32:49.997Z,11.30
2019-04-21T02:35:30.195Z,7.47
2019-04-21T02:39:10.527Z,7.23
2019-04-21T03:07:47.737Z,9.50
2019-04-21T03:56:44.753Z,5.80
2019-04-21T04:03:35.264Z,11.87
2019-04-21T04:10:08.256Z,6.70
2019-04-21T04:19:42.221Z,9.70
2019-04-21T04:22:37.869Z,7.80
2019-04-21T04:25:13.320Z,7.90
2019-04-21T04:56:20.765Z,7.73
2019-04-21T05:29:19.424Z,7.50
2019-04-21T05:32:36.219Z,8.80
2019-04-21T05:35:21.301Z,7.27
2019-04-21T05:38:14.002Z,6.57
2019-04-21T05:40:45.656Z,10.20
2019-04-21T05:43:28.433Z,6.47
2019-04-21T05:49:32.745Z,7.27
2019-04-21T05:52:02.505Z,9.30
2019-04-21T05:57:11.028Z,6.97
2019-04-21T05:59:53.723Z,7.33
2019-04-21T06:02:22.282Z,9.50
2019-04-21T06:07:24.015Z,9.93
2019-04-21T06:09:57.314Z,7.73
2019-04-21T06:12:23.572Z,5.90
2019-04-21T06:14:56.013Z,10.00
2019-04-21T06:17:25.356Z,8.53
2019-04-21T06:22:19.409Z,7.10
2019-04-21T06:25:21.615Z,8.50
2019-04-21T06:27:29.851Z,8.73
2019-04-21T06:29:57.534Z,6.80
2019-04-21T06:32:38.610Z,7.60
2019-04-21T06:37:57.051Z,11.17
2019-04-21T06:43:03.254Z,8.53
2019-04-21T06:45:24.375Z,8.43
2019-04-21T06:47:57.433Z,7.13
2019-04-21T06:50:22.885Z,9.00
2019-04-21T06:55:19.885Z,7.60
2019-04-21T06:57:48.005Z,7.30
2019-04-21T07:00:18.522Z,10.23
2019-04-21T07:02:54.580Z,7.17
2019-04-21T07:05:22.782Z,7.67
2019-04-21T07:08:06.278Z,8.27
2019-04-21T07:10:22.466Z,10.80
2019-04-21T07:12:47.947Z,8.77
2019-04-21T07:15:22.389Z,9.33
2019-04-21T07:17:45.043Z,6.57
2019-04-21T07:20:18.827Z,9.30
2019-04-21T07:22:47.867Z,7.20
2019-04-21T07:25:22.635Z,8.33
2019-04-21T07:27:52.366Z,8.00
2019-04-21T07:30:24.324Z,7.33
2019-04-21T07:32:56.305Z,7.70
2019-04-21T07:35:22.088Z,7.20
2019-04-21T07:37:48.125Z,7.73
2019-04-21T07:40:15.010Z,6.20
2019-04-21T07:42:49.812Z,7.40
2019-04-21T07:45:17.894Z,7.07
2019-04-21T07:48:00.890Z,6.63
2019-04-21T07:51:37.791Z,7.83
2019-04-21T07:54:26.909Z,7.60
2019-04-21T07:56:34.947Z,7.93
2019-04-21T07:59:23.877Z,6.30
2019-04-21T08:01:53.187Z,8.23
2019-04-21T08:04:38.906Z,7.53
2019-04-21T08:06:52.201Z,7.37
2019-04-21T08:09:19.536Z,5.77
2019-04-21T08:11:44.201Z,5.13
2019-04-21T08:14:17.787Z,4.90
2019-04-21T08:16:51.170Z,4.53
2019-04-21T08:19:18.578Z,6.10
2019-04-21T08:24:20.035Z,4.67
2019-04-21T08:26:51.430Z,4.00
2019-04-21T08:29:29.724Z,5.13
2019-04-21T08:31:56.472Z,5.40
2019-04-21T08:34:25.516Z,4.63
2019-04-21T08:36:52.756Z,3.93
2019-04-21T08:39:24.882Z,3.17
2019-04-21T08:41:50.996Z,4.10
2019-04-21T08:44:27.300Z,3.80
2019-04-21T08:46:55.143Z,3.60
2019-04-21T08:49:20.590Z,3.30
2019-04-21T08:51:53.653Z,3.57
2019-04-21T08:54:23.575Z,3.37
2019-04-21T08:57:07.808Z,3.00
2019-04-21T09:00:16.800Z,4.17
2019-04-21T09:02:56.124Z,2.90
2019-04-21T09:05:26.169Z,5.17
2019-04-21T09:07:57.424Z,3.90
2019-04-21T09:10:28.090Z,3.40
2019-04-21T09:12:58.865Z,3.50
2019-04-21T09:15:31.074Z,3.50
2019-04-21T09:17:53.378Z,3.50
2019-04-21T09:20:32.839Z,3.23
2019-04-21T09:23:00.706Z,3.20
2019-04-21T09:25:33.378Z,3.37
2019-04-21T09:28:00.672Z,3.30
2019-04-21T09:30:10.912Z,4.23
2019-04-21T09:32:40.378Z,3.50
2019-04-21T09:35:11.253Z,5.77
2019-04-21T09:37:47.310Z,3.17
2019-04-21T09:40:08.947Z,4.10
2019-04-21T09:42:47.541Z,3.07
2019-04-21T09:45:11.977Z,3.23
2019-04-21T09:47:47.062Z,3.00
2019-04-21T09:50:15.194Z,4.77
2019-04-21T09:52:49.999Z,4.53
2019-04-21T09:55:17.882Z,3.50
2019-04-21T09:57:50.055Z,3.20
2019-04-21T10:00:19.478Z,3.33
2019-04-21T10:02:54.711Z,3.13
2019-04-21T10:05:14.560Z,3.80
2019-04-21T10:07:44.216Z,3.47
2019-04-21T10:10:13.044Z,4.23
2019-04-21T10:12:41.157Z,3.10
2019-04-21T10:15:12.123Z,3.90
2019-04-21T10:17:44.005Z,3.57
2019-04-21T10:20:13.839Z,3.10
2019-04-21T10:23:09.303Z,4.00
2019-04-21T10:25:28.744Z,2.70
2019-04-21T10:27:58.958Z,3.30
2019-04-21T10:30:30.683Z,3.90
2019-04-21T10:32:58.551Z,2.80
2019-04-21T10:35:28.972Z,4.07
2019-04-21T10:38:12.874Z,3.23
2019-04-21T10:40:32.109Z,3.37
2019-04-21T10:42:58.362Z,2.57
2019-04-21T10:45:28.772Z,3.83
2019-04-21T10:47:56.843Z,2.87
2019-04-21T10:50:24.601Z,3.20
2019-04-21T10:53:16.596Z,3.90
2019-04-21T10:55:56.437Z,2.90
2019-04-21T10:58:36.175Z,5.60
2019-04-21T11:01:08.559Z,4.93
2019-04-21T11:03:53.122Z,3.70
2019-04-21T11:06:21.079Z,3.20
2019-04-21T11:08:52.369Z,3.10
2019-04-21T11:11:18.127Z,3.63
2019-04-21T11:13:46.425Z,3.40
2019-04-21T11:16:15.075Z,2.97
2019-04-21T11:18:44.015Z,3.40
2019-04-21T11:21:13.059Z,3.43
2019-04-21T11:23:40.694Z,3.13
2019-04-21T11:26:08.125Z,3.60
2019-04-21T11:28:36.761Z,3.20
2019-04-21T11:31:04.874Z,3.60
2019-04-21T11:33:33.397Z,4.90
2019-04-21T11:36:01.454Z,4.00
2019-04-21T11:38:54.277Z,5.10
2019-04-21T11:41:08.202Z,2.50
2019-04-21T11:43:37.020Z,4.50
2019-04-21T11:46:22.898Z,4.13
2019-04-21T11:49:06.337Z,2.60
2019-04-21T11:51:37.946Z,5.30
2019-04-21T11:54:06.856Z,3.90
2019-04-21T11:56:38.898Z,5.50
2019-04-21T11:59:07.965Z,4.17
2019-04-21T12:01:36.016Z,3.30
2019-04-21T12:04:05.407Z,3.53
2019-04-21T12:06:39.707Z,3.57
2019-04-21T12:09:04.763Z,2.20
2019-04-21T12:11:31.665Z,3.57
2019-04-21T12:14:00.307Z,3.43
2019-04-21T12:16:29.022Z,5.10
2019-04-21T12:18:58.789Z,4.07
2019-04-21T12:21:29.383Z,3.40
2019-04-21T12:23:56.594Z,4.40
2019-04-21T12:26:26.414Z,5.33
2019-04-21T12:28:55.657Z,3.73
2019-04-21T12:31:41.421Z,3.80
2019-04-21T12:34:10.807Z,4.53
2019-04-21T12:36:40.003Z,3.53
2019-04-21T12:39:10.564Z,3.57
2019-04-21T12:41:40.591Z,5.00
2019-04-21T12:44:08.780Z,4.00
2019-04-21T12:46:36.415Z,3.90
2019-04-21T12:49:04.220Z,3.90
2019-04-21T12:51:31.893Z,3.90
2019-04-21T12:53:59.561Z,4.80
2019-04-21T12:56:27.574Z,3.87
2019-04-21T12:58:55.375Z,3.23
2019-04-21T13:01:23.159Z,4.13
2019-04-21T13:03:52.040Z,4.30
2019-04-21T13:06:19.610Z,3.30
2019-04-21T13:08:54.484Z,3.90
2019-04-21T13:11:17.161Z,3.50
2019-04-21T13:13:45.895Z,3.80
2019-04-21T13:16:13.703Z,3.53
2019-04-21T13:18:41.834Z,3.60
2019-04-21T13:21:09.902Z,4.03
2019-04-21T13:23:39.042Z,4.20
2019-04-21T13:26:08.254Z,4.73
2019-04-21T13:28:37.511Z,3.43
2019-04-21T13:31:06.485Z,3.97
2019-04-21T13:33:35.200Z,3.23
2019-04-21T13:36:02.907Z,3.07
2019-04-21T13:38:38.717Z,3.80
2019-04-21T13:41:32.598Z,6.10
2019-04-21T13:43:48.889Z,3.27
2019-04-21T13:46:17.682Z,4.40
2019-04-21T13:48:46.522Z,3.90
2019-04-21T13:51:15.375Z,5.40
2019-04-21T13:53:43.907Z,4.77
2019-04-21T13:56:11.678Z,3.10
2019-04-21T13:58:40.156Z,3.37
2019-04-21T14:01:07.888Z,4.43
2019-04-21T14:03:37.720Z,3.53
2019-04-21T14:06:06.701Z,3.83
2019-04-21T14:08:34.491Z,4.63
2019-04-21T14:11:02.312Z,3.60
2019-04-21T14:13:30.359Z,3.20
2019-04-21T14:15:58.029Z,3.23
2019-04-21T14:18:26.806Z,2.93
2019-04-21T14:20:55.431Z,4.00
2019-04-21T14:23:32.432Z,3.63
2019-04-21T14:25:53.356Z,2.87
2019-04-21T14:28:21.962Z,4.60
2019-04-21T14:30:50.456Z,3.53
2019-04-21T14:33:18.299Z,3.07
2019-04-21T14:35:47.025Z,4.83
2019-04-21T14:38:14.640Z,3.30
2019-04-21T14:40:42.122Z,3.83
2019-04-21T14:43:10.167Z,3.00
2019-04-21T14:45:45.543Z,4.00
2019-04-21T14:48:39.237Z,3.53
2019-04-21T14:51:29.689Z,5.00
2019-04-21T14:54:15.407Z,3.50
2019-04-21T14:56:43.130Z,3.23
2019-04-21T14:59:11.000Z,3.17
2019-04-21T15:01:39.841Z,4.37
2019-04-21T15:04:08.016Z,3.70
2019-04-21T15:06:35.506Z,3.70
2019-04-21T15:09:05.567Z,4.03
2019-04-21T15:11:33.788Z,4.27
2019-04-21T15:14:02.016Z,3.90
2019-04-21T15:16:31.102Z,2.83
2019-04-21T15:18:59.068Z,2.70
2019-04-21T15:21:27.599Z,3.70
2019-04-21T15:23:56.220Z,3.20
2019-04-21T15:26:24.173Z,2.90
2019-04-21T15:28:52.831Z,2.60
2019-04-21T15:31:28.794Z,4.77
2019-04-21T15:33:49.763Z,3.73
2019-04-21T15:36:18.726Z,3.80
2019-04-21T15:38:47.760Z,3.00
2019-04-21T15:41:16.428Z,5.07
2019-04-21T15:43:44.736Z,3.30
2019-04-21T15:46:13.046Z,4.27
2019-04-21T15:48:41.209Z,4.63
2019-04-21T15:51:09.306Z,3.67
2019-04-21T15:53:39.592Z,3.43
2019-04-21T15:56:44.836Z,4.90
2019-04-21T15:59:18.776Z,4.23
2019-04-21T16:01:54.520Z,3.57
2019-04-21T16:04:23.039Z,4.47
2019-04-21T16:06:50.439Z,3.00
2019-04-21T16:09:21.608Z,2.90
2019-04-21T16:11:47.190Z,4.83
2019-04-21T16:14:14.684Z,4.20
2019-04-21T16:16:43.294Z,2.40
2019-04-21T16:19:12.133Z,4.73
2019-04-21T16:21:42.448Z,2.97
2019-04-21T16:24:09.084Z,2.93
2019-04-21T16:26:36.578Z,3.53
2019-04-21T16:29:05.012Z,4.47
2019-04-21T16:31:32.631Z,3.23
2019-04-21T16:34:01.027Z,3.67
2019-04-21T16:36:29.574Z,3.23
2019-04-21T16:38:57.643Z,3.43
2019-04-21T16:41:26.472Z,3.17
2019-04-21T16:43:55.435Z,3.17
2019-04-21T16:46:23.310Z,3.47
2019-04-21T16:48:55.835Z,3.60
2019-04-21T16:51:24.207Z,4.20
2019-04-21T16:54:01.933Z,3.20
2019-04-21T16:56:43.907Z,4.00
2019-04-21T16:59:26.395Z,3.60
2019-04-21T17:01:54.476Z,3.70
2019-04-21T17:04:22.266Z,3.10
2019-04-21T17:06:51.178Z,3.30
2019-04-21T17:09:18.925Z,2.97
2019-04-21T17:11:46.960Z,3.60
2019-04-21T17:14:33.045Z,5.33
2019-04-21T17:17:11.386Z,3.40
2019-04-21T17:19:22.041Z,3.73
2019-04-21T17:21:43.784Z,3.73
2019-04-21T17:24:12.568Z,4.67
2019-04-21T17:26:42.634Z,5.67
2019-04-21T17:29:10.444Z,9.23
2019-04-21T17:31:39.295Z,7.03
2019-04-21T17:34:12.424Z,4.63
2019-04-21T17:36:37.114Z,8.20
2019-04-21T17:39:06.833Z,6.57
2019-04-21T17:41:42.509Z,14.40
2019-04-21T17:44:04.476Z,10.27
2019-04-21T17:46:42.117Z,5.37
2019-04-21T17:49:05.199Z,3.87
2019-04-21T17:52:01.074Z,4.00
2019-04-21T17:54:39.015Z,3.63
2019-04-21T17:57:23.272Z,3.60
2019-04-21T18:02:29.782Z,4.43
2019-04-21T18:04:58.579Z,7.43
2019-04-21T18:07:27.503Z,4.27
2019-04-21T18:12:31.822Z,5.17
2019-04-21T18:14:56.508Z,5.63
2019-04-21T18:17:14.438Z,4.77
2019-04-21T18:19:45.750Z,5.23
2019-04-21T18:22:41.773Z,5.13
2019-04-21T18:25:12.595Z,4.90
2019-04-21T18:27:38.838Z,8.90
2019-04-21T18:30:46.892Z,6.63
2019-04-21T18:33:23.471Z,5.03
2019-04-21T18:36:02.922Z,5.70
2019-04-21T18:38:57.059Z,5.23
2019-04-21T18:41:07.694Z,5.03
2019-04-21T18:44:11.575Z,6.73
2019-04-21T18:46:33.097Z,6.30
2019-04-21T18:48:53.431Z,5.87
2019-04-21T18:51:35.849Z,5.80
2019-04-21T18:54:27.191Z,6.23
2019-04-21T18:56:33.796Z,6.50
2019-04-21T18:59:02.598Z,5.37
2019-04-21T19:01:33.314Z,5.50
2019-04-21T19:04:00.440Z,4.90
2019-04-21T19:06:45.872Z,4.50
2019-04-21T19:09:20.008Z,5.30
2019-04-21T19:11:45.876Z,5.33
2019-04-21T19:14:28.494Z,5.20
2019-04-21T19:16:49.688Z,6.13
2019-04-21T19:21:46.980Z,7.77
2019-04-21T19:24:25.345Z,7.30
2019-04-21T19:26:52.437Z,6.60
2019-04-21T19:29:24.411Z,6.60
2019-04-21T19:31:49.587Z,5.73
2019-04-21T19:34:05.848Z,5.30
2019-04-21T19:36:30.718Z,5.80
2019-04-21T19:39:06.505Z,6.00
2019-04-21T19:41:41.158Z,4.60
2019-04-21T19:44:14.257Z,5.73
2019-04-21T19:46:38.045Z,6.40
2019-04-21T19:49:22.793Z,6.10
2019-04-21T19:51:37.934Z,6.97
2019-04-21T19:54:09.905Z,8.30
2019-04-21T19:56:30.352Z,6.50
2019-04-21T19:59:03.673Z,6.00
2019-04-21T20:01:51.290Z,5.93
2019-04-21T20:04:20.039Z,7.73
2019-04-21T20:07:01.121Z,5.93
2019-04-21T20:09:36.711Z,6.90
2019-04-21T20:12:09.350Z,5.47
2019-04-21T20:15:08.911Z,9.20
2019-04-21T20:17:10.013Z,8.83
2019-04-21T20:19:32.158Z,6.43
2019-04-21T20:22:09.524Z,8.30
2019-04-21T20:24:39.496Z,7.40
2019-04-21T20:27:17.689Z,7.60
2019-04-21T20:29:57.637Z,7.67
2019-04-21T20:32:34.324Z,8.90
2019-04-21T20:35:14.700Z,7.97
2019-04-21T20:37:45.664Z,7.70
2019-04-21T20:40:04.400Z,6.67
2019-04-21T20:42:47.060Z,8.67
2019-04-21T20:47:40.524Z,6.80
2019-04-21T20:50:19.738Z,6.00
2019-04-21T20:52:55.134Z,6.47
2019-04-21T20:55:17.295Z,7.20
2019-04-21T20:57:49.312Z,7.77
2019-04-21T21:00:32.635Z,5.80
2019-04-21T21:03:07.120Z,8.10
2019-04-21T21:05:27.468Z,7.30
2019-04-21T21:08:14.974Z,6.07
2019-04-21T21:10:36.972Z,6.33
2019-04-21T21:13:14.506Z,5.57
2019-04-21T21:15:36.435Z,5.90
2019-04-21T21:18:15.583Z,6.40
2019-04-21T21:20:35.463Z,6.20
2019-04-21T21:23:02.894Z,5.77
2019-04-21T21:25:48.475Z,5.70
2019-04-21T21:28:02.969Z,8.60
2019-04-21T21:30:34.618Z,7.53
2019-04-21T21:33:11.283Z,7.00
2019-04-21T21:35:39.664Z,6.57
2019-04-21T21:38:19.711Z,7.40
2019-04-21T21:40:45.548Z,7.40
2019-04-21T21:43:01.561Z,6.13
2019-04-21T21:45:30.796Z,5.03
2019-04-21T21:48:11.474Z,6.90
2019-04-21T21:50:42.372Z,7.10
2019-04-21T21:53:03.308Z,4.47
2019-04-21T21:55:27.787Z,5.03
2019-04-21T21:57:58.807Z,5.90
2019-04-21T22:00:26.326Z,5.00
2019-04-21T22:02:56.641Z,4.90
2019-04-21T22:05:42.098Z,6.87
2019-04-21T22:08:02.492Z,5.10
2019-04-21T22:10:34.850Z,5.50
2019-04-21T22:13:11.816Z,6.17
2019-04-21T22:15:35.571Z,7.13
2019-04-21T22:18:24.715Z,6.37
2019-04-21T22:20:47.529Z,7.77
2019-04-21T22:23:09.456Z,6.07
2019-04-21T22:25:36.779Z,6.07
2019-04-21T22:28:01.916Z,6.30
2019-04-21T22:30:38.547Z,5.43
2019-04-21T22:33:04.521Z,12.80
2019-04-21T22:35:37.863Z,6.47
2019-04-21T22:38:16.185Z,6.87
2019-04-21T22:40:44.293Z,5.50
2019-04-21T22:43:09.927Z,5.57
2019-04-21T22:45:27.297Z,5.83
2019-04-21T22:47:58.708Z,6.53
2019-04-21T22:50:26.977Z,8.20
2019-04-21T22:53:01.510Z,5.90
2019-04-21T22:55:27.434Z,6.40
2019-04-21T22:57:57.898Z,5.93
2019-04-21T23:00:24.045Z,5.33
2019-04-21T23:02:53.966Z,5.87
2019-04-21T23:05:28.295Z,5.60
2019-04-21T23:07:58.069Z,6.60
2019-04-21T23:10:23.295Z,6.97
2019-04-21T23:12:52.052Z,8.27
2019-04-21T23:15:28.287Z,5.43
2019-04-21T23:18:08.902Z,6.43
2019-04-21T23:20:41.988Z,4.93
2019-04-21T23:23:14.366Z,10.50
2019-04-21T23:25:36.495Z,4.73
2019-04-21T23:28:09.107Z,5.60
2019-04-21T23:30:45.898Z,5.30
2019-04-21T23:32:57.229Z,6.33
2019-04-21T23:35:25.909Z,6.53
2019-04-21T23:37:56.103Z,19.93
2019-04-21T23:40:21.365Z,22.30
2019-04-21T23:42:47.173Z,9.50
2019-04-21T23:45:18.350Z,7.33
2019-04-21T23:47:57.880Z,7.90
2019-04-21T23:50:25.365Z,4.97
2019-04-21T23:52:43.696Z,4.90
2019-04-21T23:55:11.617Z,7.00
2019-04-21T23:57:43.209Z,5.90
